createdAt,value
2019-03-04T00:00:40.516Z,8.70
2019-03-04T00:03:07.962Z,9.00
2019-03-04T00:05:35.410Z,9.10
2019-03-04T00:08:02.880Z,9.20
2019-03-04T00:10:30.221Z,9.10
2019-03-04T00:12:57.462Z,9.20
2019-03-04T00:15:24.707Z,9.20
2019-03-04T00:17:52.069Z,9.10
2019-03-04T00:20:19.635Z,9.20
2019-03-04T00:22:46.871Z,9.20
2019-03-04T00:25:14.130Z,9.30
2019-03-04T00:27:41.368Z,9.30
2019-03-04T00:30:08.901Z,9.30
2019-03-04T00:32:36.322Z,9.40
2019-03-04T00:35:04.100Z,9.40
2019-03-04T00:37:31.375Z,9.60
2019-03-04T00:39:58.785Z,9.60
2019-03-04T00:42:26.005Z,9.70
2019-03-04T00:44:53.254Z,9.90
2019-03-04T00:47:20.505Z,10.00
2019-03-04T00:49:47.766Z,10.20
2019-03-04T00:52:15.009Z,10.30
2019-03-04T00:54:42.265Z,10.30
2019-03-04T00:57:09.489Z,10.30
2019-03-04T00:59:36.914Z,10.40
2019-03-04T01:02:04.253Z,10.40
2019-03-04T01:04:31.610Z,10.20
2019-03-04T01:06:59.030Z,10.20
2019-03-04T01:09:26.313Z,10.20
2019-03-04T01:11:53.674Z,10.20
2019-03-04T01:14:20.954Z,10.00
2019-03-04T01:16:48.338Z,10.00
2019-03-04T01:19:15.598Z,10.10
2019-03-04T01:21:42.900Z,9.90
2019-03-04T01:24:10.131Z,9.70
2019-03-04T01:26:37.360Z,9.40
2019-03-04T01:29:04.678Z,9.40
2019-03-04T01:31:32.038Z,9.40
2019-03-04T01:33:59.411Z,9.30
2019-03-04T01:36:26.658Z,9.40
2019-03-04T01:38:53.901Z,9.40
2019-03-04T01:41:21.251Z,9.40
2019-03-04T01:43:48.553Z,9.40
2019-03-04T01:46:16.974Z,9.40
2019-03-04T01:48:44.378Z,9.30
2019-03-04T01:51:11.691Z,9.30
2019-03-04T01:53:38.923Z,9.20
2019-03-04T01:56:06.183Z,9.20
2019-03-04T01:58:33.400Z,9.20
2019-03-04T02:01:00.618Z,9.30
2019-03-04T02:03:27.854Z,9.20
2019-03-04T02:05:55.249Z,9.20
2019-03-04T02:08:22.517Z,9.30
2019-03-04T02:10:49.742Z,9.20
2019-03-04T02:13:17.066Z,9.30
2019-03-04T02:15:44.314Z,9.30
2019-03-04T02:18:11.585Z,9.20
2019-03-04T02:20:38.929Z,9.30
2019-03-04T02:23:06.184Z,9.30
2019-03-04T02:26:17.663Z,9.40
2019-03-04T02:28:45.058Z,9.50
2019-03-04T02:31:12.557Z,9.30
2019-03-04T02:33:39.980Z,9.10
2019-03-04T02:36:07.215Z,9.10
2019-03-04T02:38:41.946Z,9.20
2019-03-04T02:41:09.208Z,9.00
2019-03-04T02:43:36.518Z,8.80
2019-03-04T02:46:03.819Z,8.70
2019-03-04T02:48:31.279Z,8.80
2019-03-04T02:50:58.534Z,8.90
2019-03-04T02:53:25.949Z,8.90
2019-03-04T02:55:53.320Z,8.80
2019-03-04T02:58:20.591Z,8.80
2019-03-04T03:00:47.967Z,8.70
2019-03-04T03:03:15.208Z,8.50
2019-03-04T03:05:42.583Z,8.50
2019-03-04T03:08:09.891Z,8.50
2019-03-04T03:10:37.323Z,8.60
2019-03-04T03:13:04.641Z,8.50
2019-03-04T03:15:31.967Z,8.40
2019-03-04T03:17:59.347Z,8.40
2019-03-04T03:20:26.599Z,8.30
2019-03-04T03:22:53.994Z,8.30
2019-03-04T03:25:21.376Z,8.20
2019-03-04T03:27:48.819Z,7.90
2019-03-04T03:30:16.302Z,7.80
2019-03-04T03:32:43.754Z,7.60
2019-03-04T03:35:11.141Z,7.60
2019-03-04T03:37:38.703Z,7.70
2019-03-04T03:40:07.792Z,7.90
2019-03-04T03:42:35.249Z,8.00
2019-03-04T03:45:02.868Z,8.10
2019-03-04T03:47:30.266Z,8.10
2019-03-04T03:49:57.746Z,8.20
2019-03-04T03:52:25.090Z,8.40
2019-03-04T03:54:52.438Z,8.30
2019-03-04T03:57:19.669Z,8.30
2019-03-04T03:59:46.907Z,8.40
2019-03-04T04:02:14.256Z,8.40
2019-03-04T04:04:41.690Z,8.50
2019-03-04T04:07:08.987Z,8.50
2019-03-04T04:09:36.237Z,8.60
2019-03-04T04:12:03.563Z,8.60
2019-03-04T04:14:31.022Z,8.50
2019-03-04T04:16:58.364Z,8.40
2019-03-04T04:19:25.760Z,8.40
2019-03-04T04:21:53.098Z,8.40
2019-03-04T04:24:20.464Z,8.50
2019-03-04T04:26:48.094Z,8.50
2019-03-04T04:29:15.375Z,8.60
2019-03-04T04:31:43.397Z,8.30
2019-03-04T04:34:10.782Z,8.20
2019-03-04T04:36:38.234Z,8.30
2019-03-04T04:39:06.550Z,8.10
2019-03-04T04:41:33.778Z,7.90
2019-03-04T04:44:01.052Z,7.40
2019-03-04T04:46:45.049Z,7.20
2019-03-04T04:49:12.305Z,6.90
2019-03-04T04:51:39.670Z,6.90
2019-03-04T04:54:07.145Z,7.10
2019-03-04T04:56:34.487Z,7.20
2019-03-04T04:59:01.725Z,7.20
2019-03-04T05:01:29.166Z,7.20
2019-03-04T05:03:56.403Z,7.10
2019-03-04T05:06:23.625Z,7.00
2019-03-04T05:08:51.127Z,7.00
2019-03-04T05:11:18.488Z,6.90
2019-03-04T05:13:45.942Z,6.90
2019-03-04T05:16:13.186Z,7.00
2019-03-04T05:18:40.542Z,6.90
2019-03-04T05:21:07.790Z,7.00
2019-03-04T05:23:35.053Z,7.00
2019-03-04T05:26:02.308Z,6.80
2019-03-04T05:28:29.746Z,6.70
2019-03-04T05:30:57.015Z,6.70
2019-03-04T05:33:24.254Z,6.70
2019-03-04T05:35:51.611Z,6.60
2019-03-04T05:38:18.897Z,6.70
2019-03-04T05:40:46.121Z,6.70
2019-03-04T05:43:13.441Z,6.70
2019-03-04T05:45:40.677Z,6.80
2019-03-04T05:48:07.903Z,6.60
2019-03-04T05:50:35.151Z,6.80
2019-03-04T05:53:02.483Z,6.80
2019-03-04T05:55:29.863Z,6.70
2019-03-04T05:57:57.121Z,6.50
2019-03-04T06:00:25.713Z,6.50
2019-03-04T06:02:53.142Z,6.60
2019-03-04T06:05:20.389Z,6.60
2019-03-04T06:07:53.641Z,6.40
2019-03-04T06:10:20.986Z,6.30
2019-03-04T06:12:48.363Z,6.30
2019-03-04T06:15:17.326Z,6.30
2019-03-04T06:17:44.601Z,6.30
2019-03-04T06:20:13.080Z,6.40
2019-03-04T06:22:40.329Z,6.40
2019-03-04T06:25:10.758Z,6.60
2019-03-04T06:27:38.038Z,6.50
2019-03-04T06:30:07.022Z,6.60
2019-03-04T06:32:34.377Z,6.80
2019-03-04T06:35:01.666Z,7.00
2019-03-04T06:37:28.918Z,7.10
2019-03-04T06:39:57.125Z,7.40
2019-03-04T06:42:24.518Z,7.60
2019-03-04T06:44:51.870Z,7.80
2019-03-04T06:47:19.110Z,8.00
2019-03-04T06:49:46.446Z,8.10
2019-03-04T06:52:13.746Z,8.60
2019-03-04T06:55:07.776Z,9.00
2019-03-04T06:57:47.298Z,9.60
2019-03-04T07:01:01.433Z,9.90
2019-03-04T07:03:41.151Z,10.00
2019-03-04T07:06:08.513Z,10.00
2019-03-04T07:09:15.641Z,10.00
2019-03-04T07:11:44.230Z,10.20
2019-03-04T07:14:11.464Z,10.40
2019-03-04T07:16:38.695Z,10.40
2019-03-04T07:19:26.458Z,10.70
2019-03-04T07:21:53.697Z,11.00
2019-03-04T07:24:21.026Z,11.50
2019-03-04T07:26:48.452Z,11.40
2019-03-04T07:29:15.702Z,11.80
2019-03-04T07:31:43.146Z,12.10
2019-03-04T07:34:10.383Z,12.80
2019-03-04T07:36:37.682Z,12.80
2019-03-04T07:39:15.946Z,12.50
2019-03-04T07:41:54.271Z,12.30
2019-03-04T07:44:21.482Z,12.10
2019-03-04T07:46:48.805Z,12.10
2019-03-04T07:49:16.163Z,12.10
2019-03-04T07:51:43.411Z,12.30
2019-03-04T07:54:10.684Z,12.30
2019-03-04T07:56:37.918Z,12.20
2019-03-04T07:59:05.327Z,12.20
2019-03-04T08:01:32.567Z,12.20
2019-03-04T08:03:59.893Z,12.20
2019-03-04T08:06:27.131Z,12.20
2019-03-04T08:09:12.294Z,12.20
2019-03-04T08:12:13.137Z,12.30
2019-03-04T08:14:40.527Z,12.60
2019-03-04T08:17:07.799Z,12.60
2019-03-04T08:19:35.027Z,12.80
2019-03-04T08:22:02.262Z,12.80
2019-03-04T08:24:29.505Z,12.80
2019-03-04T08:26:56.767Z,12.80
2019-03-04T08:29:24.019Z,12.60
2019-03-04T08:31:51.273Z,12.60
2019-03-04T08:34:18.510Z,12.60
2019-03-04T08:36:45.747Z,12.50
2019-03-04T08:39:13.245Z,12.40
2019-03-04T08:41:40.519Z,12.70
2019-03-04T08:44:07.815Z,12.70
2019-03-04T08:46:35.118Z,12.70
2019-03-04T08:49:02.351Z,12.90
2019-03-04T08:51:29.595Z,12.80
2019-03-04T08:53:56.823Z,12.80
2019-03-04T08:56:24.039Z,12.80
2019-03-04T08:58:51.879Z,12.90
2019-03-04T09:01:19.100Z,13.00
2019-03-04T09:03:46.449Z,13.20
2019-03-04T09:06:13.802Z,13.40
2019-03-04T09:08:41.040Z,13.70
2019-03-04T09:11:08.874Z,13.80
2019-03-04T09:13:36.118Z,14.00
2019-03-04T09:16:03.450Z,13.90
2019-03-04T09:18:32.085Z,13.80
2019-03-04T09:20:59.642Z,13.80
2019-03-04T09:23:26.874Z,13.70
2019-03-04T09:26:03.654Z,13.70
2019-03-04T09:28:30.915Z,13.90
2019-03-04T09:30:58.194Z,14.10
2019-03-04T09:33:25.545Z,14.30
2019-03-04T09:35:52.766Z,14.50
2019-03-04T09:38:20.017Z,14.70
2019-03-04T09:40:47.249Z,15.00
2019-03-04T09:43:14.588Z,15.20
2019-03-04T09:45:41.829Z,15.30
2019-03-04T09:48:09.058Z,15.20
2019-03-04T09:50:36.269Z,15.10
2019-03-04T09:53:03.626Z,15.20
2019-03-04T09:55:31.224Z,15.50
2019-03-04T09:57:58.590Z,15.70
2019-03-04T10:00:54.433Z,16.10
2019-03-04T10:03:46.062Z,16.30
2019-03-04T10:06:28.945Z,16.40
2019-03-04T10:09:09.411Z,16.60
2019-03-04T10:12:03.886Z,16.90
2019-03-04T10:15:10.332Z,17.30
2019-03-04T10:18:11.655Z,17.40
2019-03-04T10:21:23.630Z,17.50
2019-03-04T10:24:36.648Z,17.40
2019-03-04T10:27:25.562Z,17.50
2019-03-04T10:30:26.490Z,17.30
2019-03-04T10:33:28.979Z,17.30
2019-03-04T10:36:40.929Z,17.30
2019-03-04T10:39:55.999Z,17.50
2019-03-04T10:43:21.231Z,17.70
2019-03-04T10:46:19.530Z,17.80
2019-03-04T10:48:46.763Z,18.00
2019-03-04T10:51:13.973Z,18.20
2019-03-04T10:53:41.206Z,18.50
2019-03-04T10:56:08.446Z,18.60
2019-03-04T10:58:35.671Z,18.70
2019-03-04T11:01:03.109Z,18.70
2019-03-04T11:03:30.334Z,18.50
2019-03-04T11:05:57.595Z,18.70
2019-03-04T11:08:24.832Z,18.60
2019-03-04T11:10:52.169Z,18.40
2019-03-04T11:13:19.401Z,18.50
2019-03-04T11:15:46.738Z,18.50
2019-03-04T11:18:13.975Z,18.60
2019-03-04T11:20:41.231Z,18.90
2019-03-04T11:23:08.662Z,19.10
2019-03-04T11:25:36.017Z,19.20
2019-03-04T11:28:03.349Z,19.50
2019-03-04T11:30:31.602Z,19.90
2019-03-04T11:32:58.853Z,20.40
2019-03-04T11:35:26.081Z,20.90
2019-03-04T11:37:53.461Z,21.30
2019-03-04T11:40:34.649Z,21.50
2019-03-04T11:43:02.002Z,21.30
2019-03-04T11:45:29.383Z,21.00
2019-03-04T11:47:56.622Z,21.00
2019-03-04T11:50:23.962Z,21.20
2019-03-04T11:52:51.258Z,21.40
2019-03-04T11:55:19.195Z,21.40
2019-03-04T11:57:46.433Z,21.20
2019-03-04T12:00:22.238Z,21.20
2019-03-04T12:02:49.474Z,21.20
2019-03-04T12:05:16.709Z,21.30
2019-03-04T12:07:43.968Z,21.50
2019-03-04T12:10:12.290Z,21.00
2019-03-04T12:12:39.640Z,20.50
2019-03-04T12:15:09.262Z,20.50
2019-03-04T12:17:36.490Z,20.50
2019-03-04T12:20:05.358Z,20.40
2019-03-04T12:22:32.614Z,20.10
2019-03-04T12:24:59.951Z,20.00
2019-03-04T12:27:27.194Z,20.00
2019-03-04T12:29:54.483Z,19.90
2019-03-04T12:32:24.910Z,19.90
2019-03-04T12:34:52.165Z,19.80
2019-03-04T12:37:19.502Z,19.80
2019-03-04T12:39:46.843Z,20.00
2019-03-04T12:42:14.079Z,20.00
2019-03-04T12:44:41.309Z,20.00
2019-03-04T12:47:08.642Z,19.80
2019-03-04T12:49:35.893Z,19.90
2019-03-04T12:52:03.699Z,19.90
2019-03-04T12:54:30.954Z,19.80
2019-03-04T12:56:58.201Z,19.70
2019-03-04T12:59:25.542Z,19.50
2019-03-04T13:01:52.759Z,19.70
2019-03-04T13:04:20.009Z,19.70
2019-03-04T13:06:47.354Z,19.70
2019-03-04T13:09:14.961Z,19.70
2019-03-04T13:11:42.425Z,19.60
2019-03-04T13:14:09.690Z,19.50
2019-03-04T13:16:36.910Z,19.40
2019-03-04T13:19:04.281Z,19.40
2019-03-04T13:21:31.514Z,19.50
2019-03-04T13:23:58.751Z,19.50
2019-03-04T13:26:25.973Z,19.20
2019-03-04T13:28:53.222Z,19.10
2019-03-04T13:31:20.530Z,19.20
2019-03-04T13:33:47.797Z,19.10
2019-03-04T13:36:15.357Z,19.10
2019-03-04T13:38:42.634Z,19.10
2019-03-04T13:41:10.060Z,19.10
2019-03-04T13:43:37.297Z,19.10
2019-03-04T13:46:04.573Z,19.10
2019-03-04T13:48:31.805Z,18.90
2019-03-04T13:50:59.177Z,19.00
2019-03-04T13:53:26.398Z,19.10
2019-03-04T13:55:53.638Z,19.00
2019-03-04T13:58:20.865Z,19.00
2019-03-04T14:00:48.104Z,19.10
2019-03-04T14:03:15.437Z,18.70
2019-03-04T14:05:42.996Z,18.40
2019-03-04T14:08:10.361Z,18.50
2019-03-04T14:10:37.628Z,18.40
2019-03-04T14:13:04.969Z,18.10
2019-03-04T14:15:34.178Z,17.50
2019-03-04T14:18:01.442Z,17.30
2019-03-04T14:20:28.669Z,17.20
2019-03-04T14:22:57.976Z,17.10
2019-03-04T14:25:25.166Z,17.00
2019-03-04T14:27:52.394Z,16.80
2019-03-04T14:30:19.624Z,16.70
2019-03-04T14:32:46.994Z,16.70
2019-03-04T14:35:14.274Z,16.80
2019-03-04T14:37:41.843Z,16.70
2019-03-04T14:40:12.464Z,16.60
2019-03-04T14:42:40.158Z,16.70
2019-03-04T14:45:09.603Z,16.70
2019-03-04T14:47:36.874Z,16.70
2019-03-04T14:50:09.826Z,16.60
2019-03-04T14:52:35.483Z,16.30
2019-03-04T14:55:03.189Z,15.90
2019-03-04T14:57:30.543Z,15.70
2019-03-04T14:59:57.767Z,15.70
2019-03-04T15:02:25.103Z,15.60
2019-03-04T15:04:52.531Z,15.60
2019-03-04T15:07:19.886Z,15.50
2019-03-04T15:09:49.569Z,15.40
2019-03-04T15:12:16.307Z,15.20
2019-03-04T15:14:43.664Z,15.10
2019-03-04T15:17:19.026Z,15.10
2019-03-04T15:19:46.606Z,14.70
2019-03-04T15:22:13.869Z,14.40
2019-03-04T15:24:41.199Z,14.20
2019-03-04T15:27:08.448Z,13.90
2019-03-04T15:29:35.711Z,13.80
2019-03-04T15:32:03.038Z,13.60
2019-03-04T15:34:30.249Z,13.40
2019-03-04T15:36:57.669Z,13.20
2019-03-04T15:39:25.006Z,13.10
2019-03-04T15:41:53.497Z,13.10
2019-03-04T15:44:20.738Z,13.00
2019-03-04T15:46:48.078Z,13.00
2019-03-04T15:49:15.306Z,12.90
2019-03-04T15:51:42.525Z,12.90
2019-03-04T15:54:09.944Z,12.90
2019-03-04T15:56:37.157Z,12.90
2019-03-04T15:59:04.526Z,12.80
2019-03-04T16:01:31.791Z,12.80
2019-03-04T16:03:59.041Z,12.70
2019-03-04T16:06:26.360Z,12.60
2019-03-04T16:08:53.583Z,12.50
2019-03-04T16:11:20.992Z,12.40
2019-03-04T16:13:53.310Z,12.30
2019-03-04T16:16:17.673Z,12.30
2019-03-04T16:18:45.134Z,12.20
2019-03-04T16:21:12.435Z,11.90
2019-03-04T16:23:39.687Z,11.80
2019-03-04T16:26:10.439Z,11.30
2019-03-04T16:28:37.641Z,11.10
2019-03-04T16:31:04.873Z,11.00
2019-03-04T16:33:32.102Z,10.80
2019-03-04T16:35:59.318Z,10.70
2019-03-04T16:38:26.587Z,10.60
2019-03-04T16:40:53.898Z,10.60
2019-03-04T16:43:21.131Z,10.50
2019-03-04T16:45:48.377Z,10.40
2019-03-04T16:48:15.770Z,10.50
2019-03-04T16:50:43.311Z,10.40
2019-03-04T16:53:11.634Z,10.30
2019-03-04T16:55:38.887Z,10.20
2019-03-04T16:58:06.133Z,10.20
2019-03-04T17:00:33.626Z,10.20
2019-03-04T17:03:01.022Z,10.30
2019-03-04T17:05:30.778Z,10.20
2019-03-04T17:07:58.463Z,10.30
2019-03-04T17:10:25.982Z,10.00
2019-03-04T17:12:54.485Z,9.90
2019-03-04T17:15:22.082Z,9.90
2019-03-04T17:17:49.757Z,9.70
2019-03-04T17:20:17.199Z,9.60
2019-03-04T17:22:44.538Z,9.40
2019-03-04T17:25:13.358Z,9.40
2019-03-04T17:27:41.508Z,9.40
2019-03-04T17:30:10.758Z,9.40
2019-03-04T17:32:38.629Z,9.40
2019-03-04T17:35:06.078Z,9.30
2019-03-04T17:37:33.356Z,9.30
2019-03-04T17:40:00.857Z,9.30
2019-03-04T17:42:28.158Z,9.20
2019-03-04T17:44:55.510Z,9.20
2019-03-04T17:47:22.833Z,9.20
2019-03-04T17:49:50.077Z,9.10
2019-03-04T17:52:17.323Z,9.10
2019-03-04T17:54:44.547Z,9.00
2019-03-04T17:57:12.332Z,9.00
2019-03-04T17:59:39.565Z,9.00
2019-03-04T18:02:07.136Z,9.00
2019-03-04T18:04:34.371Z,8.90
2019-03-04T18:07:01.818Z,8.90
2019-03-04T18:09:29.049Z,8.90
2019-03-04T18:11:56.289Z,8.90
2019-03-04T18:14:23.626Z,8.90
2019-03-04T18:16:50.856Z,8.90
2019-03-04T18:19:18.230Z,9.00
2019-03-04T18:21:45.486Z,9.00
2019-03-04T18:24:12.816Z,8.80
2019-03-04T18:26:58.962Z,9.00
2019-03-04T18:29:42.610Z,8.90
2019-03-04T18:32:55.253Z,8.80
2019-03-04T18:35:50.953Z,8.70
2019-03-04T18:38:40.949Z,8.70
2019-03-04T18:41:52.590Z,8.70
2019-03-04T18:44:39.128Z,8.70
2019-03-04T18:47:15.681Z,8.70
2019-03-04T18:49:42.958Z,8.70
2019-03-04T18:52:10.177Z,8.80
2019-03-04T18:54:37.439Z,8.80
2019-03-04T18:57:04.734Z,8.80
2019-03-04T18:59:32.115Z,8.70
2019-03-04T19:01:59.535Z,8.60
2019-03-04T19:04:27.939Z,8.70
2019-03-04T19:06:56.495Z,8.70
2019-03-04T19:09:24.326Z,8.70
2019-03-04T19:11:52.367Z,8.60
2019-03-04T19:14:20.164Z,8.70
2019-03-04T19:16:47.725Z,8.70
2019-03-04T19:19:15.123Z,8.70
2019-03-04T19:21:42.666Z,8.80
2019-03-04T19:24:09.913Z,8.80
2019-03-04T19:26:37.168Z,8.90
2019-03-04T19:29:04.542Z,8.90
2019-03-04T19:31:31.787Z,8.80
2019-03-04T19:33:59.026Z,8.80
2019-03-04T19:36:26.238Z,8.80
2019-03-04T19:38:53.487Z,8.70
2019-03-04T19:41:20.954Z,8.90
2019-03-04T19:43:48.194Z,8.80
2019-03-04T19:46:15.760Z,8.90
2019-03-04T19:48:43.123Z,8.90
2019-03-04T19:51:10.738Z,8.80
2019-03-04T19:53:37.977Z,8.70
2019-03-04T19:56:05.454Z,8.70
2019-03-04T19:58:32.818Z,8.70
2019-03-04T20:01:00.262Z,8.70
2019-03-04T20:03:27.755Z,8.70
2019-03-04T20:05:55.306Z,8.70
2019-03-04T20:08:22.627Z,8.90
2019-03-04T20:10:49.931Z,8.90
2019-03-04T20:13:17.350Z,8.90
2019-03-04T20:15:44.881Z,8.90
2019-03-04T20:18:12.140Z,8.90
2019-03-04T20:20:40.293Z,9.00
2019-03-04T20:23:07.618Z,8.80
2019-03-04T20:25:34.953Z,8.80
2019-03-04T20:28:02.167Z,8.80
2019-03-04T20:30:29.510Z,8.70
2019-03-04T20:32:56.830Z,8.70
2019-03-04T20:35:24.057Z,8.80
2019-03-04T20:37:52.123Z,8.70
2019-03-04T20:40:19.593Z,8.70
2019-03-04T20:42:46.821Z,8.70
2019-03-04T20:45:15.216Z,8.70
2019-03-04T20:47:42.444Z,8.70
2019-03-04T20:50:13.670Z,8.80
2019-03-04T20:52:40.922Z,8.80
2019-03-04T20:55:08.430Z,8.80
2019-03-04T20:57:35.771Z,8.80
2019-03-04T21:00:04.683Z,8.80
2019-03-04T21:02:31.935Z,8.80
2019-03-04T21:04:59.283Z,8.80
2019-03-04T21:07:26.524Z,8.80
2019-03-04T21:09:53.747Z,8.70
2019-03-04T21:12:20.977Z,8.70
2019-03-04T21:14:48.334Z,8.70
2019-03-04T21:17:15.582Z,8.90
2019-03-04T21:19:42.829Z,8.90
2019-03-04T21:22:10.082Z,9.10
2019-03-04T21:24:37.450Z,9.10
2019-03-04T21:27:04.694Z,9.40
2019-03-04T21:29:57.802Z,9.60
2019-03-04T21:32:42.559Z,9.80
2019-03-04T21:35:54.116Z,9.40
2019-03-04T21:38:25.096Z,9.10
2019-03-04T21:41:27.726Z,8.90
2019-03-04T21:44:12.550Z,8.80
2019-03-04T21:46:55.150Z,8.60
2019-03-04T21:49:24.760Z,8.60
2019-03-04T21:52:32.705Z,8.50
2019-03-04T21:55:01.553Z,8.40
2019-03-04T21:57:34.834Z,8.40
2019-03-04T22:00:04.161Z,8.30
2019-03-04T22:03:02.207Z,8.40
2019-03-04T22:05:29.614Z,8.30
2019-03-04T22:07:56.954Z,8.30
2019-03-04T22:10:24.459Z,8.10
2019-03-04T22:12:51.773Z,8.00
2019-03-04T22:15:32.003Z,7.90
2019-03-04T22:17:59.233Z,7.80
2019-03-04T22:20:26.474Z,7.80
2019-03-04T22:22:54.074Z,8.10
2019-03-04T22:25:21.486Z,8.00
2019-03-04T22:27:48.754Z,8.10
2019-03-04T22:30:16.173Z,8.10
2019-03-04T22:32:43.733Z,8.40
2019-03-04T22:35:11.814Z,8.30
2019-03-04T22:37:39.144Z,8.20
2019-03-04T22:40:09.022Z,8.20
2019-03-04T22:42:36.259Z,8.20
2019-03-04T22:45:06.200Z,8.20
2019-03-04T22:47:33.530Z,8.20
2019-03-04T22:50:00.773Z,8.10
2019-03-04T22:52:28.039Z,8.10
2019-03-04T22:54:55.368Z,8.00
2019-03-04T22:57:22.710Z,8.00
2019-03-04T22:59:49.959Z,7.80
2019-03-04T23:02:17.914Z,7.50
2019-03-04T23:04:47.871Z,7.00
2019-03-04T23:07:27.273Z,6.40
2019-03-04T23:10:00.380Z,6.20
2019-03-04T23:12:45.489Z,6.20
2019-03-04T23:15:15.670Z,6.20
2019-03-04T23:17:42.907Z,6.20
2019-03-04T23:20:10.241Z,6.10
2019-03-04T23:22:37.493Z,6.20
2019-03-04T23:25:05.521Z,6.20
2019-03-04T23:27:32.795Z,6.30
2019-03-04T23:30:00.018Z,6.20
2019-03-04T23:32:27.251Z,6.30
2019-03-04T23:34:54.482Z,6.30
2019-03-04T23:37:21.714Z,6.40
2019-03-04T23:39:48.942Z,6.50
2019-03-04T23:42:16.247Z,6.50
2019-03-04T23:44:43.470Z,6.70
2019-03-04T23:47:11.642Z,6.60
2019-03-04T23:49:38.882Z,6.50
2019-03-04T23:52:06.106Z,6.60
2019-03-04T23:54:33.341Z,6.60
2019-03-04T23:57:00.561Z,6.50
2019-03-04T23:59:27.926Z,6.60
